Time;durP1;ratioP1;P1;durP2;ratioP2;P2;SDS_P1;SDS_P2;PMS_P1;PMS_P2;Temp;Humidity;BMP_temperature;BMP_pressure;BME280_temperature;BME280_humidity;BME280_pressure;Samples;Min_cycle;Max_cycle;Signal;HPM_P1;HPM_P2
2022/12/27 00:01:55;;;;;;;;;;;;;;;25.09;29.08;101427.44;5077385;28;1966;-17
2022/12/27 00:04:20;;;;;;;;;;;;;;;25.05;29.12;101424.19;5076651;28;1063;-18
2022/12/27 00:06:45;;;;;;;;;;;;;;;25.00;29.11;101427.34;5077076;28;1087;-18
2022/12/27 00:09:11;;;;;;;;;;;;;;;24.95;29.28;101421.56;5077555;28;1147;-18
2022/12/27 00:11:36;;;;;;;;;;;;;;;24.93;29.36;101418.16;5077287;28;1086;-18
2022/12/27 00:14:02;;;;;;;;;;;;;;;25.02;29.17;101419.13;5059361;28;1136;-17
2022/12/27 00:16:27;;;;;;;;;;;;;;;24.99;29.23;101414.03;5071560;28;1233;-17
2022/12/27 00:18:52;;;;;;;;;;;;;;;24.96;29.16;101408.97;5069436;28;1067;-18
2022/12/27 00:21:18;;;;;;;;;;;;;;;24.90;29.17;101419.34;5076517;28;1953;-18
2022/12/27 00:23:44;;;;;;;;;;;;;;;24.89;29.33;101419.47;5077108;28;1198;-17
2022/12/27 00:26:11;;;;;;;;;;;;;;;25.02;29.30;101411.03;5076751;28;1218;-17
2022/12/27 00:28:36;;;;;;;;;;;;;;;24.91;29.38;101421.00;5077336;28;1094;-18
2022/12/27 00:31:01;;;;;;;;;;;;;;;24.98;29.04;101417.72;5076515;28;1052;-17
2022/12/27 00:33:27;;;;;;;;;;;;;;;24.96;29.21;101409.78;5076050;28;1063;-17
2022/12/27 00:35:52;;;;;;;;;;;;;;;24.92;29.41;101405.72;5076455;28;1082;-18
2022/12/27 00:38:18;;;;;;;;;;;;;;;24.93;29.31;101402.88;5077084;28;1167;-18
2022/12/27 00:40:43;;;;;;;;;;;;;;;24.92;29.27;101400.34;5076531;28;1890;-17
2022/12/27 00:43:08;;;;;;;;;;;;;;;24.89;29.52;101404.13;5076257;28;1062;-18
2022/12/27 00:45:33;;;;;;;;;;;;;;;24.83;29.44;101397.53;5076349;28;1039;-17
2022/12/27 00:47:59;;;;;;;;;;;;;;;24.89;29.24;101398.75;5076800;28;1146;-18
2022/12/27 00:50:24;;;;;;;;;;;;;;;24.88;29.37;101404.28;5076669;28;1083;-18
2022/12/27 00:52:50;;;;;;;;;;;;;;;24.90;29.34;101391.53;5076647;28;1140;-18
2022/12/27 00:55:15;;;;;;;;;;;;;;;24.82;29.64;101386.91;5075830;28;1127;-17
2022/12/27 00:57:40;;;;;;;;;;;;;;;24.81;29.27;101391.44;5075871;28;991;-17
2022/12/27 01:00:06;;;;;;;;;;;;;;;24.87;29.25;101381.94;5077056;28;1206;-17
2022/12/27 01:02:31;;;;;;;;;;;;;;;24.81;29.63;101374.44;5076384;28;1905;-17
2022/12/27 01:04:56;;;;;;;;;;;;;;;24.85;29.51;101375.00;5076290;28;1120;-17
2022/12/27 01:07:22;;;;;;;;;;;;;;;24.75;29.50;101365.16;5075874;28;1152;-17
2022/12/27 01:09:47;;;;;;;;;;;;;;;24.86;29.53;101377.53;5076346;28;991;-17
2022/12/27 01:12:13;;;;;;;;;;;;;;;24.79;29.46;101371.91;5076440;28;1021;-18
2022/12/27 01:14:38;;;;;;;;;;;;;;;24.76;29.59;101374.06;5076360;28;1072;-17
2022/12/27 01:17:03;;;;;;;;;;;;;;;24.79;29.53;101379.16;5075929;28;1217;-17
2022/12/27 01:19:28;;;;;;;;;;;;;;;24.78;29.65;101370.22;5073320;28;1071;-17
2022/12/27 01:21:54;;;;;;;;;;;;;;;24.74;29.59;101376.06;5076743;28;1922;-17
2022/12/27 01:24:19;;;;;;;;;;;;;;;24.82;29.45;101374.28;5075772;28;1055;-17
2022/12/27 01:26:44;;;;;;;;;;;;;;;24.80;29.61;101364.69;5076392;28;1123;-17
2022/12/27 01:29:12;;;;;;;;;;;;;;;24.76;29.44;101356.06;5076228;28;1071;-17
2022/12/27 01:31:38;;;;;;;;;;;;;;;24.74;29.71;101352.69;5076269;28;1150;-17
2022/12/27 01:34:03;;;;;;;;;;;;;;;24.76;29.68;101356.06;5075225;28;1062;-18
2022/12/27 01:36:29;;;;;;;;;;;;;;;24.79;29.67;101339.63;5076476;28;1210;-18
2022/12/27 01:38:54;;;;;;;;;;;;;;;24.73;29.51;101350.16;5075557;28;1082;-17
2022/12/27 01:44:23;;;;;;;;;;;;;;;24.79;29.59;101345.00;5075515;28;1289;-17
2022/12/27 01:46:48;;;;;;;;;;;;;;;24.72;29.72;101354.69;5075654;28;1090;-17
2022/12/27 01:49:13;;;;;;;;;;;;;;;24.83;29.64;101345.56;5075874;28;1123;-17
2022/12/27 01:51:38;;;;;;;;;;;;;;;24.87;29.39;101346.94;5076448;28;1158;-18
2022/12/27 01:54:04;;;;;;;;;;;;;;;24.83;29.76;101345.56;5075448;28;1158;-17
2022/12/27 01:56:29;;;;;;;;;;;;;;;24.80;29.53;101333.25;5075863;28;1004;-17
2022/12/27 01:58:56;;;;;;;;;;;;;;;24.74;29.67;101327.66;5057770;28;1299;-17
2022/12/27 02:01:22;;;;;;;;;;;;;;;24.72;29.66;101324.25;5057770;28;1953;-17
2022/12/27 02:04:17;;;;;;;;;;;;;;;24.77;29.79;101322.81;5075573;28;1190;-17
2022/12/27 02:06:42;;;;;;;;;;;;;;;24.79;29.88;101322.66;5058230;28;1203;-17
2022/12/27 02:09:09;;;;;;;;;;;;;;;24.81;29.67;101318.78;5074913;28;910;-18
2022/12/27 02:11:50;;;;;;;;;;;;;;;24.85;29.65;101315.78;5079158;28;1380;-17
2022/12/27 02:14:17;;;;;;;;;;;;;;;24.75;29.74;101313.19;5079440;28;1296;-17
2022/12/27 02:16:42;;;;;;;;;;;;;;;24.79;29.54;101325.34;5061774;28;1117;-17
2022/12/27 02:19:32;;;;;;;;;;;;;;;24.61;30.09;101326.16;5079004;28;1167;-17
2022/12/27 02:22:24;;;;;;;;;;;;;;;24.69;30.00;101325.41;5052114;28;1979;-17
2022/12/27 02:24:58;;;;;;;;;;;;;;;24.77;29.76;101321.94;5063025;28;1412;-17
2022/12/27 02:27:26;;;;;;;;;;;;;;;24.79;29.69;101310.03;5079494;28;1151;-17
2022/12/27 02:30:12;;;;;;;;;;;;;;;24.73;29.67;101307.97;5078809;28;983;-17
2022/12/27 02:32:40;;;;;;;;;;;;;;;24.80;29.75;101308.19;5061382;28;1083;-17
2022/12/27 02:35:24;;;;;;;;;;;;;;;24.75;29.96;101308.66;5079125;28;1130;-17
2022/12/27 02:37:51;;;;;;;;;;;;;;;24.67;30.25;101311.25;5067281;28;1196;-17
2022/12/27 02:54:17;;;;;;;;;;;;;;;24.64;30.13;101303.50;5078485;28;1079;-17
2022/12/27 02:59:32;;;;;;;;;;;;;;;24.56;30.09;101301.56;5063353;28;1053;-18
2022/12/27 03:05:06;;;;;;;;;;;;;;;24.64;29.97;101288.19;5058867;28;1250;-17
2022/12/27 03:07:31;;;;;;;;;;;;;;;24.57;30.04;101296.03;5071378;28;1078;-18
2022/12/27 03:16:08;;;;;;;;;;;;;;;24.50;30.31;101286.88;5077990;28;1099;-17
2022/12/27 03:18:36;;;;;;;;;;;;;;;24.55;30.15;101291.81;5078327;28;1055;-17
2022/12/27 03:26:29;;;;;;;;;;;;;;;24.66;30.14;101280.81;5065718;28;970;-17
2022/12/27 03:34:31;;;;;;;;;;;;;;;24.43;30.30;101285.78;5061807;28;972;-17
2022/12/27 03:39:43;;;;;;;;;;;;;;;23.81;31.81;101289.88;5062562;28;1095;-17
2022/12/27 03:44:53;;;;;;;;;;;;;;;24.75;30.02;101281.75;5062064;28;1090;-17
2022/12/27 03:47:22;;;;;;;;;;;;;;;23.53;32.01;101276.41;5071819;28;1091;-17
2022/12/27 03:49:48;;;;;;;;;;;;;;;23.27;32.78;101277.03;5070715;28;1091;-17
2022/12/27 03:52:21;;;;;;;;;;;;;;;23.57;32.24;101277.84;5059711;28;1083;-17
2022/12/27 03:54:47;;;;;;;;;;;;;;;24.49;30.30;101282.50;5059740;28;1132;-17
2022/12/27 03:57:19;;;;;;;;;;;;;;;24.69;29.77;101275.13;5046196;28;992;-17
2022/12/27 03:59:45;;;;;;;;;;;;;;;23.70;31.68;101273.00;5059763;28;1160;-17
2022/12/27 04:02:10;;;;;;;;;;;;;;;24.51;30.31;101266.19;5076943;28;1897;-17
2022/12/27 04:04:35;;;;;;;;;;;;;;;24.66;29.93;101258.44;5076976;28;1059;-17
2022/12/27 04:07:01;;;;;;;;;;;;;;;24.69;29.81;101261.69;5077415;28;1038;-17
2022/12/27 04:36:45;;;;;;;;;;;;;;;25.42;26.56;101256.19;5063964;28;1866;-18
2022/12/27 04:39:10;;;;;;;;;;;;;;;25.82;26.28;101254.91;5074608;28;1823;-18
2022/12/27 04:55:20;;;;;;;;;;;;;;;25.83;26.75;101254.75;5076212;28;992;-19
2022/12/27 04:57:45;;;;;;;;;;;;;;;25.54;27.62;101256.75;5075776;28;1082;-19
2022/12/27 05:02:55;;;;;;;;;;;;;;;25.48;27.74;101257.41;5075800;28;1959;-19
2022/12/27 05:05:20;;;;;;;;;;;;;;;26.62;26.25;101267.13;5058601;28;1108;-19
2022/12/27 05:15:57;;;;;;;;;;;;;;;28.22;23.90;101257.69;5075097;28;984;-19
2022/12/27 05:18:22;;;;;;;;;;;;;;;28.50;23.71;101267.16;5075766;28;1326;-19
2022/12/27 05:20:47;;;;;;;;;;;;;;;28.54;23.61;101263.09;5075526;28;1963;-19
2022/12/27 05:25:57;;;;;;;;;;;;;;;28.32;24.29;101262.84;5075450;28;1066;-19
2022/12/27 05:28:22;;;;;;;;;;;;;;;27.68;24.87;101262.81;5075959;28;920;-19
2022/12/27 05:30:47;;;;;;;;;;;;;;;28.77;23.66;101259.53;5075691;28;1150;-19
2022/12/27 05:33:13;;;;;;;;;;;;;;;28.15;23.97;101260.25;5075516;28;1297;-19
2022/12/27 05:35:38;;;;;;;;;;;;;;;28.55;23.98;101264.75;5075462;28;1108;-19
2022/12/27 05:38:03;;;;;;;;;;;;;;;27.98;24.95;101260.34;5075531;28;1239;-19
2022/12/27 05:40:29;;;;;;;;;;;;;;;28.68;23.61;101267.72;5075518;28;1231;-19
2022/12/27 05:42:54;;;;;;;;;;;;;;;28.88;23.28;101263.69;5072851;28;2392;-18
2022/12/27 05:45:19;;;;;;;;;;;;;;;28.73;23.91;101259.03;5060114;28;1176;-18
2022/12/27 05:47:45;;;;;;;;;;;;;;;27.77;24.94;101258.25;5079469;28;1196;-18
2022/12/27 05:50:10;;;;;;;;;;;;;;;28.65;23.76;101262.66;5079153;28;1200;-18
2022/12/27 05:52:35;;;;;;;;;;;;;;;27.84;24.66;101261.09;5078958;28;1183;-18
2022/12/27 05:55:01;;;;;;;;;;;;;;;27.63;24.94;101259.78;5078978;28;1306;-18
2022/12/27 05:57:26;;;;;;;;;;;;;;;28.80;23.86;101251.03;5076211;28;1203;-18
2022/12/27 05:59:51;;;;;;;;;;;;;;;29.05;23.33;101240.84;5060872;28;1247;-18
2022/12/27 06:02:17;;;;;;;;;;;;;;;28.33;24.28;101249.19;5079360;28;1910;-19
2022/12/27 06:04:42;;;;;;;;;;;;;;;29.18;23.44;101247.50;5079121;28;1195;-18
2022/12/27 06:07:10;;;;;;;;;;;;;;;29.24;22.92;101240.50;5078724;28;1211;-19
2022/12/27 06:09:36;;;;;;;;;;;;;;;29.21;23.20;101245.25;5078583;28;1203;-18
2022/12/27 06:12:01;;;;;;;;;;;;;;;29.38;23.16;101247.78;5076465;28;1769;-19
2022/12/27 06:14:26;;;;;;;;;;;;;;;29.53;22.90;101250.50;5078595;28;1183;-19
2022/12/27 06:16:51;;;;;;;;;;;;;;;28.47;23.99;101253.00;5078558;28;1523;-19
2022/12/27 06:19:17;;;;;;;;;;;;;;;27.94;24.84;101252.75;5078507;28;1227;-18
2022/12/27 06:21:42;;;;;;;;;;;;;;;28.73;23.96;101250.91;5078264;28;1955;-18
2022/12/27 06:24:07;;;;;;;;;;;;;;;28.30;24.76;101257.63;5078803;28;1255;-18
2022/12/27 06:26:33;;;;;;;;;;;;;;;29.26;23.42;101252.81;5078672;28;1259;-18
2022/12/27 06:28:58;;;;;;;;;;;;;;;29.32;23.04;101256.66;5078297;28;1208;-19
2022/12/27 06:31:24;;;;;;;;;;;;;;;29.53;22.94;101249.69;5078710;28;1265;-19
2022/12/27 06:33:50;;;;;;;;;;;;;;;29.52;22.95;101258.81;5078350;28;1270;-19
2022/12/27 06:36:16;;;;;;;;;;;;;;;29.35;23.26;101261.72;5078533;28;1417;-19
2022/12/27 06:38:41;;;;;;;;;;;;;;;29.21;23.35;101268.81;5078061;28;1239;-19
2022/12/27 06:41:10;;;;;;;;;;;;;;;28.58;24.15;101267.94;5078469;28;1902;-19
2022/12/27 06:43:35;;;;;;;;;;;;;;;28.72;24.10;101254.66;5075252;28;1812;-19
2022/12/27 06:46:02;;;;;;;;;;;;;;;27.98;24.70;101260.34;5078968;28;1262;-19
2022/12/27 06:48:28;;;;;;;;;;;;;;;28.55;24.42;101270.19;5078205;28;1210;-18
2022/12/27 06:50:53;;;;;;;;;;;;;;;29.07;23.57;101268.59;5078570;28;1120;-19
2022/12/27 06:53:18;;;;;;;;;;;;;;;29.53;23.28;101264.06;5078194;28;1294;-18
2022/12/27 06:55:44;;;;;;;;;;;;;;;29.74;22.77;101264.34;5077434;28;1231;-18
2022/12/27 06:58:09;;;;;;;;;;;;;;;29.80;22.89;101260.88;5077804;28;1199;-18
2022/12/27 07:00:34;;;;;;;;;;;;;;;29.67;22.80;101265.13;5077789;28;1334;-19
2022/12/27 07:03:01;;;;;;;;;;;;;;;29.48;22.89;101260.25;5078346;28;1894;-18
2022/12/27 07:05:27;;;;;;;;;;;;;;;28.41;24.28;101267.22;5077854;28;1115;-19
2022/12/27 07:07:53;;;;;;;;;;;;;;;28.92;23.84;101263.13;5078262;28;1062;-18
2022/12/27 07:10:18;;;;;;;;;;;;;;;28.77;24.18;101262.22;5077280;28;988;-18
2022/12/27 07:12:44;;;;;;;;;;;;;;;29.60;22.97;101264.19;5076944;28;2543;-18
2022/12/27 07:15:09;;;;;;;;;;;;;;;29.83;22.72;101265.94;5077956;28;1115;-19
2022/12/27 07:17:35;;;;;;;;;;;;;;;29.65;22.86;101258.19;5077865;28;1176;-18
2022/12/27 07:20:00;;;;;;;;;;;;;;;29.80;22.72;101256.31;5077719;28;1035;-18
2022/12/27 07:22:26;;;;;;;;;;;;;;;28.69;24.11;101247.75;5077703;28;1975;-19
2022/12/27 07:24:51;;;;;;;;;;;;;;;28.23;24.70;101246.69;5077485;28;1031;-18
2022/12/27 07:27:16;;;;;;;;;;;;;;;29.18;23.83;101247.50;5077625;28;1114;-18
2022/12/27 07:29:41;;;;;;;;;;;;;;;29.50;23.09;101250.88;5077677;28;1119;-18
2022/12/27 07:32:07;;;;;;;;;;;;;;;28.33;24.39;101257.31;5077576;28;1050;-19
2022/12/27 07:34:32;;;;;;;;;;;;;;;28.60;24.33;101251.53;5077497;28;855;-18
2022/12/27 07:36:57;;;;;;;;;;;;;;;29.30;23.65;101253.28;5077160;28;1122;-18
2022/12/27 07:39:23;;;;;;;;;;;;;;;29.74;22.95;101254.38;5078231;28;1103;-18
2022/12/27 07:41:48;;;;;;;;;;;;;;;29.66;23.20;101258.00;5076016;28;2369;-19
2022/12/27 07:44:13;;;;;;;;;;;;;;;30.02;22.70;101252.81;5077271;28;1218;-19
2022/12/27 07:46:38;;;;;;;;;;;;;;;29.87;22.72;101250.13;5076843;28;1051;-19
2022/12/27 07:49:04;;;;;;;;;;;;;;;29.04;23.57;101247.31;5077180;28;1012;-18
2022/12/27 07:51:29;;;;;;;;;;;;;;;28.47;24.43;101247.59;5077508;28;1190;-18
2022/12/27 07:53:54;;;;;;;;;;;;;;;29.42;23.51;101249.13;5077097;28;1039;-18
2022/12/27 07:56:21;;;;;;;;;;;;;;;29.20;23.99;101253.56;5077399;28;1082;-19
2022/12/27 07:58:46;;;;;;;;;;;;;;;29.57;23.17;101249.13;5076805;28;1092;-18
2022/12/27 08:01:12;;;;;;;;;;;;;;;29.50;23.17;101248.16;5076891;28;1963;-18
2022/12/27 08:03:37;;;;;;;;;;;;;;;28.60;24.37;101251.53;5076815;28;1122;-19
2022/12/27 08:06:03;;;;;;;;;;;;;;;28.96;24.30;101253.59;5076642;28;1011;-18
2022/12/27 08:08:38;;;;;;;;;;;;;;;29.65;23.28;101260.91;5057912;28;1115;-18
2022/12/27 08:11:04;;;;;;;;;;;;;;;30.02;22.85;101256.38;5076833;28;1095;-19
2022/12/27 08:13:29;;;;;;;;;;;;;;;29.75;23.01;101260.59;5064923;28;1817;-19
2022/12/27 08:15:54;;;;;;;;;;;;;;;30.24;22.51;101270.00;5076976;28;1011;-18
2022/12/27 08:18:20;;;;;;;;;;;;;;;28.86;24.25;101253.03;5076474;28;1104;-18
2022/12/27 08:20:45;;;;;;;;;;;;;;;29.01;24.05;101250.34;5076468;28;1955;-19
2022/12/27 08:23:10;;;;;;;;;;;;;;;29.15;23.95;101248.72;5076603;28;913;-19
2022/12/27 08:25:36;;;;;;;;;;;;;;;30.08;22.77;101262.88;5076739;28;1199;-19
2022/12/27 08:28:02;;;;;;;;;;;;;;;29.00;23.83;101255.97;5076194;28;1090;-18
2022/12/27 08:30:27;;;;;;;;;;;;;;;28.94;24.35;101257.53;5076670;28;1000;-18
2022/12/27 08:32:52;;;;;;;;;;;;;;;28.76;24.35;101249.72;5076867;28;1068;-18
2022/12/27 08:35:18;;;;;;;;;;;;;;;28.44;24.78;101253.34;5075519;28;983;-18
2022/12/27 08:37:43;;;;;;;;;;;;;;;29.69;23.50;101246.81;5069864;28;1007;-18
2022/12/27 08:40:08;;;;;;;;;;;;;;;29.06;24.02;101244.41;5070201;28;1116;-19
2022/12/27 08:42:34;;;;;;;;;;;;;;;28.55;24.50;101240.41;5067772;28;2551;-19
2022/12/27 08:44:59;;;;;;;;;;;;;;;29.26;24.20;101236.56;5069508;28;1179;-19
2022/12/27 08:47:24;;;;;;;;;;;;;;;29.74;23.40;101234.53;5075847;28;1222;-19
2022/12/27 08:49:49;;;;;;;;;;;;;;;28.71;24.55;101224.03;5076171;28;1231;-18
2022/12/27 08:52:15;;;;;;;;;;;;;;;29.10;24.48;101218.63;5076279;28;1258;-19
2022/12/27 08:54:40;;;;;;;;;;;;;;;29.29;24.00;101219.97;5058060;28;1184;-19
2022/12/27 08:57:05;;;;;;;;;;;;;;;29.63;23.55;101231.25;5075958;28;1207;-19
2022/12/27 08:59:31;;;;;;;;;;;;;;;29.83;23.31;101225.25;5075590;28;1258;-19
2022/12/27 09:01:56;;;;;;;;;;;;;;;28.70;24.61;101213.38;5075735;28;1894;-18
2022/12/27 09:04:21;;;;;;;;;;;;;;;28.78;24.66;101218.72;5075966;28;1290;-19
2022/12/27 09:06:46;;;;;;;;;;;;;;;28.46;24.88;101215.28;5075522;28;1306;-18
2022/12/27 09:09:12;;;;;;;;;;;;;;;28.54;25.08;101211.66;5076216;28;1195;-19
2022/12/27 09:11:37;;;;;;;;;;;;;;;29.29;23.79;101210.97;5075266;28;1724;-19
2022/12/27 09:14:03;;;;;;;;;;;;;;;28.55;24.91;101205.22;5073111;28;1270;-19
2022/12/27 09:16:28;;;;;;;;;;;;;;;28.90;24.70;101193.91;5075325;28;1306;-18
2022/12/27 09:18:54;;;;;;;;;;;;;;;29.54;23.79;101197.13;5075582;28;1231;-18
2022/12/27 09:21:20;;;;;;;;;;;;;;;28.75;24.64;101194.72;5075390;28;1914;-19
2022/12/27 09:23:46;;;;;;;;;;;;;;;28.54;25.19;101188.16;5074677;28;1262;-19
2022/12/27 09:26:15;;;;;;;;;;;;;;;29.18;24.02;101188.75;5075765;28;1223;-19
2022/12/27 09:28:40;;;;;;;;;;;;;;;28.50;25.00;101178.72;5075737;28;1337;-19
2022/12/27 09:31:06;;;;;;;;;;;;;;;29.04;24.43;101176.88;5075610;28;1258;-19
2022/12/27 09:33:32;;;;;;;;;;;;;;;29.30;24.08;101170.16;5075602;28;1290;-19
2022/12/27 09:36:01;;;;;;;;;;;;;;;28.62;24.82;101168.28;5074985;28;1243;-18
2022/12/27 09:38:26;;;;;;;;;;;;;;;28.79;24.83;101158.16;5075210;28;1167;-19
2022/12/27 09:40:55;;;;;;;;;;;;;;;29.17;24.20;101157.28;5075437;28;1965;-19
2022/12/27 09:43:21;;;;;;;;;;;;;;;28.45;25.02;101162.19;5072613;28;2333;-19
2022/12/27 09:45:47;;;;;;;;;;;;;;;28.40;25.49;101146.50;5057270;28;1318;-19
2022/12/27 09:48:21;;;;;;;;;;;;;;;28.84;24.63;101157.59;5057211;28;1223;-19
2022/12/27 09:50:56;;;;;;;;;;;;;;;28.40;25.06;101153.75;5075667;28;1191;-19
2022/12/27 09:53:42;;;;;;;;;;;;;;;29.24;24.40;101154.66;5075274;28;1264;-19
2022/12/27 09:56:07;;;;;;;;;;;;;;;28.47;25.05;101149.31;5075081;28;1230;-18
2022/12/27 09:58:33;;;;;;;;;;;;;;;28.78;24.97;101142.09;5057345;28;1334;-18
2022/12/27 10:00:59;;;;;;;;;;;;;;;28.84;24.62;101138.66;5073689;28;1905;-18
2022/12/27 10:03:25;;;;;;;;;;;;;;;28.26;25.40;101139.97;5075256;28;1231;-19
2022/12/27 10:05:56;;;;;;;;;;;;;;;28.60;25.14;101137.84;5057448;28;1235;-18
2022/12/27 10:08:27;;;;;;;;;;;;;;;28.64;24.80;101141.88;5075273;28;1199;-19
2022/12/27 10:11:34;;;;;;;;;;;;;;;28.18;25.70;101135.47;5074625;28;1223;-18
2022/12/27 10:13:56;;;;;;;;;;;;;;;29.29;23.98;101127.00;5055957;28;1410;-19
2022/12/27 10:16:26;;;;;;;;;;;;;;;28.39;25.37;101104.22;5056853;28;1207;-19
2022/12/27 10:19:10;;;;;;;;;;;;;;;28.53;25.13;101099.84;5057063;28;1184;-19
2022/12/27 10:21:36;;;;;;;;;;;;;;;28.34;25.45;101093.13;5075073;28;1918;-19
2022/12/27 10:24:18;;;;;;;;;;;;;;;28.17;25.44;101092.38;5054031;28;1212;-19
2022/12/27 10:26:43;;;;;;;;;;;;;;;28.12;25.54;101092.94;5056960;28;1252;-19
2022/12/27 10:29:14;;;;;;;;;;;;;;;28.31;25.17;101085.34;5057071;28;1311;-19
2022/12/27 10:31:41;;;;;;;;;;;;;;;28.09;25.64;101086.00;5076749;28;1219;-19
2022/12/27 10:34:07;;;;;;;;;;;;;;;28.67;24.92;101086.53;5060940;28;1337;-19
2022/12/27 10:36:32;;;;;;;;;;;;;;;28.34;25.05;101071.47;5060568;28;1224;-19
2022/12/27 10:38:58;;;;;;;;;;;;;;;28.73;24.81;101070.38;5060588;28;1311;-19
2022/12/27 10:41:42;;;;;;;;;;;;;;;28.55;24.90;101076.16;5060290;28;1978;-19
2022/12/27 10:44:10;;;;;;;;;;;;;;;28.31;25.25;101066.41;5076014;28;1287;-19
2022/12/27 10:46:35;;;;;;;;;;;;;;;29.10;24.21;101056.09;5078703;28;1391;-19
2022/12/27 10:49:02;;;;;;;;;;;;;;;28.68;24.58;101053.84;5059809;28;1333;-19
2022/12/27 10:51:37;;;;;;;;;;;;;;;28.67;24.95;101052.19;5078839;28;1043;-19
2022/12/27 10:54:03;;;;;;;;;;;;;;;28.65;24.71;101040.69;5047645;28;1080;-19
2022/12/27 10:56:29;;;;;;;;;;;;;;;28.60;24.78;101037.72;5060120;28;1028;-19
2022/12/27 10:59:04;;;;;;;;;;;;;;;29.06;24.46;101035.84;5078118;28;1020;-19
2022/12/27 11:01:31;;;;;;;;;;;;;;;28.75;24.74;101031.44;5077768;28;1963;-19
2022/12/27 11:04:15;;;;;;;;;;;;;;;28.78;24.68;101020.28;5078705;28;948;-19
2022/12/27 11:06:40;;;;;;;;;;;;;;;28.51;25.06;101023.41;5077914;28;1127;-19
2022/12/27 11:09:24;;;;;;;;;;;;;;;28.59;24.77;101012.50;5078054;28;1012;-19
2022/12/27 11:11:50;;;;;;;;;;;;;;;28.89;24.82;101011.66;5076647;28;2344;-19
2022/12/27 11:14:16;;;;;;;;;;;;;;;28.94;24.56;101011.94;5071082;28;1028;-20
2022/12/27 11:16:41;;;;;;;;;;;;;;;28.64;24.95;101006.56;5077466;28;1039;-19
2022/12/27 11:19:13;;;;;;;;;;;;;;;28.58;25.30;101001.88;5078657;28;1140;-19
2022/12/27 11:21:39;;;;;;;;;;;;;;;28.77;25.08;100999.63;5060522;28;1942;-19
2022/12/27 11:24:05;;;;;;;;;;;;;;;28.72;25.10;100995.63;5073787;28;1131;-19
2022/12/27 11:26:38;;;;;;;;;;;;;;;29.07;24.55;100995.03;5060026;28;1143;-19
2022/12/27 11:29:04;;;;;;;;;;;;;;;28.95;24.93;100993.81;5059665;28;1179;-20
2022/12/27 11:31:30;;;;;;;;;;;;;;;28.99;24.96;100992.44;5077634;28;1039;-20
2022/12/27 11:34:00;;;;;;;;;;;;;;;28.57;25.54;100984.81;5059361;28;1122;-22
2022/12/27 11:36:30;;;;;;;;;;;;;;;28.55;25.40;100975.19;5059549;28;1214;-20
2022/12/27 11:38:55;;;;;;;;;;;;;;;28.52;25.32;100973.69;5059270;28;1004;-20
2022/12/27 11:41:24;;;;;;;;;;;;;;;28.57;25.18;100967.72;5077113;28;1898;-20
2022/12/27 11:43:51;;;;;;;;;;;;;;;28.47;25.23;100978.84;5057845;28;2647;-21
2022/12/27 11:46:22;;;;;;;;;;;;;;;28.19;25.87;100969.47;5059649;28;1190;-20
2022/12/27 11:48:49;;;;;;;;;;;;;;;28.40;25.71;100975.19;5076918;28;1058;-20
2022/12/27 11:51:33;;;;;;;;;;;;;;;28.52;25.34;100972.84;5077481;28;1115;-20
2022/12/27 11:54:17;;;;;;;;;;;;;;;28.37;25.45;100973.69;5076243;28;1322;-20
2022/12/27 11:56:52;;;;;;;;;;;;;;;28.34;25.38;100976.78;5065022;28;1039;-19
2022/12/27 11:59:17;;;;;;;;;;;;;;;27.73;26.24;100973.09;5059164;28;1115;-19
2022/12/27 12:02:01;;;;;;;;;;;;;;;28.32;25.54;100966.13;5076881;28;1955;-20
2022/12/27 12:04:41;;;;;;;;;;;;;;;28.38;25.62;100966.44;5077053;28;1118;-20
2022/12/27 12:07:19;;;;;;;;;;;;;;;28.34;25.68;100960.56;5077540;28;988;-19
2022/12/27 12:09:50;;;;;;;;;;;;;;;28.29;25.49;100966.50;5076598;28;1150;-20
2022/12/27 12:12:18;;;;;;;;;;;;;;;28.31;25.61;100960.91;5075415;28;2235;-20
2022/12/27 12:14:45;;;;;;;;;;;;;;;28.52;25.17;100953.91;5076684;28;1031;-20
2022/12/27 12:17:37;;;;;;;;;;;;;;;28.36;25.32;100947.69;5058815;28;1313;-19
2022/12/27 12:20:05;;;;;;;;;;;;;;;28.73;24.98;100947.72;5045350;28;1042;-20
2022/12/27 12:22:30;;;;;;;;;;;;;;;28.56;25.14;100950.63;5071617;28;1918;-20
2022/12/27 12:25:14;;;;;;;;;;;;;;;28.37;25.62;100946.66;5076583;28;877;-20
2022/12/27 12:27:39;;;;;;;;;;;;;;;28.28;25.57;100953.16;5076839;28;1215;-19
2022/12/27 12:30:23;;;;;;;;;;;;;;;28.46;25.29;100940.09;5076231;28;1134;-20
2022/12/27 12:33:06;;;;;;;;;;;;;;;28.23;25.80;100956.41;5076165;28;1008;-20
2022/12/27 12:35:38;;;;;;;;;;;;;;;28.32;25.52;100967.97;5071618;28;1160;-20
2022/12/27 12:38:19;;;;;;;;;;;;;;;27.78;26.38;100951.75;5069755;28;1074;-20
2022/12/27 12:40:47;;;;;;;;;;;;;;;28.36;25.14;100969.31;5072070;28;1223;-20
2022/12/27 12:43:15;;;;;;;;;;;;;;;28.42;25.38;100971.28;5056362;28;1936;-20
2022/12/27 12:45:44;;;;;;;;;;;;;;;28.38;25.54;100969.13;5074786;28;1293;-20
2022/12/27 12:48:12;;;;;;;;;;;;;;;28.25;25.45;100970.56;5057087;28;1275;-20
2022/12/27 12:50:55;;;;;;;;;;;;;;;27.79;26.10;100964.28;5071915;28;1352;-20
2022/12/27 12:53:20;;;;;;;;;;;;;;;27.99;25.67;100993.50;5056153;28;1155;-20
2022/12/27 12:56:10;;;;;;;;;;;;;;;27.88;25.91;101000.16;5075445;28;1261;-20
2022/12/27 12:58:38;;;;;;;;;;;;;;;27.91;25.91;100997.09;5036422;28;1455;-20
2022/12/27 13:01:15;;;;;;;;;;;;;;;28.04;25.80;100990.22;5073604;28;1893;-20
2022/12/27 13:03:49;;;;;;;;;;;;;;;28.17;25.49;100986.91;5075267;28;1253;-20
2022/12/27 13:06:20;;;;;;;;;;;;;;;28.48;25.03;101000.28;5075274;28;1238;-20
2022/12/27 13:08:47;;;;;;;;;;;;;;;28.01;25.70;101004.13;5075511;28;1340;-20
2022/12/27 13:11:12;;;;;;;;;;;;;;;27.92;25.97;101012.31;5057525;28;1275;-20
2022/12/27 13:13:44;;;;;;;;;;;;;;;28.16;25.48;101017.69;5075118;28;1948;-20
2022/12/27 13:16:09;;;;;;;;;;;;;;;28.02;25.62;101003.09;5075479;28;1286;-19
2022/12/27 13:18:37;;;;;;;;;;;;;;;28.62;25.00;101015.88;5075714;28;1353;-20
2022/12/27 13:21:09;;;;;;;;;;;;;;;28.21;25.60;101012.56;5057315;28;1906;-20
2022/12/27 13:23:37;;;;;;;;;;;;;;;28.15;25.49;101018.69;5075235;28;1364;-20
2022/12/27 13:26:06;;;;;;;;;;;;;;;28.56;24.96;101014.78;5073475;28;1143;-18
2022/12/27 13:28:50;;;;;;;;;;;;;;;28.16;25.56;101018.50;5075308;28;1352;-20
2022/12/27 13:31:27;;;;;;;;;;;;;;;28.10;25.68;101019.25;5074190;28;1254;-20
2022/12/27 13:34:09;;;;;;;;;;;;;;;28.18;25.35;101024.56;5073982;28;1385;-20
2022/12/27 13:36:37;;;;;;;;;;;;;;;28.02;25.51;101022.88;5057349;28;1294;-20
2022/12/27 13:39:13;;;;;;;;;;;;;;;27.85;26.11;101019.44;5072656;28;1250;-20
2022/12/27 13:41:57;;;;;;;;;;;;;;;28.19;25.48;101025.44;5057051;28;2318;-20
2022/12/27 13:44:23;;;;;;;;;;;;;;;27.80;25.83;101020.00;5072739;28;1222;-20
2022/12/27 13:46:52;;;;;;;;;;;;;;;28.59;24.96;101027.94;5075047;28;1404;-20
2022/12/27 13:49:36;;;;;;;;;;;;;;;28.06;25.35;101026.06;5056967;28;1385;-20
2022/12/27 13:52:14;;;;;;;;;;;;;;;27.81;25.93;101027.09;5075116;28;1246;-20
2022/12/27 13:54:43;;;;;;;;;;;;;;;28.96;24.45;101041.53;5057356;28;1353;-20
2022/12/27 13:57:11;;;;;;;;;;;;;;;28.06;25.23;101032.28;5075300;28;1297;-19
2022/12/27 13:59:36;;;;;;;;;;;;;;;28.36;25.20;101036.97;5075349;28;1329;-20
2022/12/27 14:02:17;;;;;;;;;;;;;;;28.72;24.49;101040.78;5074353;28;1894;-20
2022/12/27 14:05:03;;;;;;;;;;;;;;;28.09;25.33;101034.63;5057360;28;1427;-20
2022/12/27 14:07:38;;;;;;;;;;;;;;;28.01;25.97;101034.69;5060125;28;1302;-20
2022/12/27 14:10:06;;;;;;;;;;;;;;;28.15;25.37;101034.91;5060967;28;1254;-20
2022/12/27 14:12:50;;;;;;;;;;;;;;;27.78;25.95;101042.84;5078384;28;2366;-20
2022/12/27 14:15:17;;;;;;;;;;;;;;;28.91;24.59;101043.97;5059776;28;1143;-20
2022/12/27 14:17:48;;;;;;;;;;;;;;;28.27;25.17;101046.13;5060948;28;1317;-20
2022/12/27 14:20:37;;;;;;;;;;;;;;;28.02;25.50;101049.06;5061428;28;1314;-20
2022/12/27 14:23:02;;;;;;;;;;;;;;;28.91;24.43;101052.91;5040412;28;1907;-20
2022/12/27 14:25:27;;;;;;;;;;;;;;;28.43;25.01;101051.41;5077012;28;1395;-20
2022/12/27 14:28:05;;;;;;;;;;;;;;;28.04;25.42;101047.88;5078861;28;1361;-20
2022/12/27 14:31:03;;;;;;;;;;;;;;;28.51;24.92;101060.50;5072651;28;1321;-19
2022/12/27 14:33:31;;;;;;;;;;;;;;;28.08;25.70;101049.19;5023768;28;1174;-19
2022/12/27 14:36:11;;;;;;;;;;;;;;;28.05;25.30;101046.84;5069118;28;1092;-19